createdAt,value
2022-09-09T00:00:37.426Z,100879.72
2022-09-09T00:04:05.138Z,100879.41
2022-09-09T00:07:39.426Z,100881.56
2022-09-09T00:11:07.695Z,100880.91
2022-09-09T00:14:39.581Z,100883.25
2022-09-09T00:18:10.305Z,100878.22
2022-09-09T00:21:37.226Z,100882.75
2022-09-09T00:25:11.297Z,100880.06
2022-09-09T00:28:38.279Z,100882.91
2022-09-09T00:32:06.822Z,100883.59
2022-09-09T00:35:33.462Z,100888.28
2022-09-09T00:39:00.473Z,100889.81
2022-09-09T00:42:26.928Z,100884.25
2022-09-09T00:46:12.932Z,100887.63
2022-09-09T00:49:48.915Z,100882.75
2022-09-09T00:53:30.960Z,100887.13
2022-09-09T00:57:05.962Z,100892.16
2022-09-09T01:00:30.160Z,100891.31
2022-09-09T01:03:55.887Z,100886.59
2022-09-09T01:07:19.916Z,100900.06
2022-09-09T01:10:55.549Z,100896.69
2022-09-09T01:14:32.948Z,100890.16
2022-09-09T01:18:02.369Z,100893.50
2022-09-09T01:21:34.979Z,100897.72
2022-09-09T01:25:22.243Z,100901.09
2022-09-09T01:28:54.677Z,100892.84
2022-09-09T01:32:47.388Z,100910.66
2022-09-09T01:36:15.706Z,100899.91
2022-09-09T01:39:46.786Z,100909.50
2022-09-09T01:43:11.677Z,100906.13
2022-09-09T01:46:34.766Z,100901.75
2022-09-09T01:49:57.385Z,100903.44
2022-09-09T01:53:23.897Z,100898.06
2022-09-09T01:57:03.976Z,100900.22
2022-09-09T02:00:26.772Z,100898.56
2022-09-09T02:03:58.266Z,100898.03
2022-09-09T02:07:35.562Z,100896.53
2022-09-09T02:11:03.833Z,100899.56
2022-09-09T02:14:38.586Z,100905.94
2022-09-09T02:18:03.145Z,100909.81
2022-09-09T02:21:29.558Z,100901.41
2022-09-09T02:24:54.723Z,100913.31
2022-09-09T02:28:22.506Z,100902.22
2022-09-09T02:31:46.366Z,100902.41
2022-09-09T02:35:16.805Z,100899.03
2022-09-09T02:38:57.286Z,100901.06
2022-09-09T02:42:23.361Z,100901.06
2022-09-09T02:46:01.754Z,100909.25
2022-09-09T02:49:30.767Z,100904.91
2022-09-09T02:53:04.249Z,100910.28
2022-09-09T02:56:32.394Z,100918.50
2022-09-09T02:59:54.544Z,100926.72
2022-09-09T03:03:17.378Z,100912.47
2022-09-09T03:06:39.498Z,100918.13
2022-09-09T03:10:11.644Z,100922.16
2022-09-09T03:13:34.733Z,100914.09
2022-09-09T03:16:57.547Z,100916.13
2022-09-09T03:20:19.958Z,100911.06
2022-09-09T03:23:41.795Z,100905.69
2022-09-09T03:27:03.559Z,100920.13
2022-09-09T03:30:28.686Z,100925.50
2022-09-09T03:33:51.899Z,100924.84
2022-09-09T03:37:15.523Z,100923.16
2022-09-09T03:40:37.349Z,100915.44
2022-09-09T03:43:59.350Z,100913.75
2022-09-09T03:47:24.333Z,100905.16
2022-09-09T03:50:52.090Z,100907.03
2022-09-09T03:54:13.738Z,100919.59
2022-09-09T03:57:36.936Z,100919.94
2022-09-09T04:01:02.451Z,100916.41
2022-09-09T04:04:25.729Z,100920.94
2022-09-09T04:07:47.523Z,100924.78
2022-09-09T04:11:09.818Z,100925.94
2022-09-09T04:14:33.241Z,100922.75
2022-09-09T04:17:55.142Z,100924.06
2022-09-09T04:21:18.572Z,100931.41
2022-09-09T04:24:42.070Z,100937.97
2022-09-09T04:28:06.323Z,100950.53
2022-09-09T04:31:28.615Z,100947.34
2022-09-09T04:34:51.986Z,100942.44
2022-09-09T04:38:15.437Z,100938.41
2022-09-09T04:41:38.748Z,100944.78
2022-09-09T04:45:01.221Z,100951.16
2022-09-09T04:48:23.475Z,100941.41
2022-09-09T04:51:45.292Z,100943.56
2022-09-09T04:55:10.646Z,100952.78
2022-09-09T04:58:33.171Z,100954.63
2022-09-09T05:01:56.236Z,100954.09
2022-09-09T05:05:19.559Z,100954.44
2022-09-09T05:08:44.580Z,100959.81
2022-09-09T05:12:08.030Z,100972.50
2022-09-09T05:15:31.791Z,100974.69
2022-09-09T05:18:53.300Z,100969.63
2022-09-09T05:22:21.195Z,100972.94
2022-09-09T05:25:43.625Z,100974.94
2022-09-09T05:29:07.153Z,100979.47
2022-09-09T05:32:28.976Z,100978.09
2022-09-09T05:35:58.049Z,100977.41
2022-09-09T05:39:19.795Z,100975.72
2022-09-09T05:42:41.669Z,100976.72
2022-09-09T05:46:07.234Z,100966.38
2022-09-09T05:49:29.106Z,100965.38
2022-09-09T05:52:50.955Z,100976.78
2022-09-09T05:56:15.225Z,100982.38
2022-09-09T05:59:38.310Z,100976.81
2022-09-09T06:03:02.117Z,100979.06
2022-09-09T06:06:25.240Z,100977.88
2022-09-09T06:09:47.045Z,100998.75
2022-09-09T06:13:08.810Z,100991.38
2022-09-09T06:16:33.579Z,100982.00
2022-09-09T06:19:57.117Z,100989.56
2022-09-09T06:23:19.907Z,100985.41
2022-09-09T06:26:42.659Z,100984.75
2022-09-09T06:30:08.615Z,100985.13
2022-09-09T06:33:35.817Z,100988.22
2022-09-09T06:36:59.788Z,100978.84
2022-09-09T06:40:27.902Z,100969.13
2022-09-09T06:43:50.096Z,100973.19
2022-09-09T06:47:12.487Z,100981.06
2022-09-09T06:50:35.765Z,100982.59
2022-09-09T06:54:00.493Z,100982.59
2022-09-09T06:57:38.561Z,100975.22
2022-09-09T07:01:06.884Z,100987.31
2022-09-09T07:04:29.494Z,100974.22
2022-09-09T07:07:52.934Z,100985.31
2022-09-09T07:11:17.326Z,100982.00
2022-09-09T07:14:39.290Z,100991.94
2022-09-09T07:18:04.352Z,100987.41
2022-09-09T07:21:28.335Z,100996.34
2022-09-09T07:24:49.987Z,100994.34
2022-09-09T07:28:13.194Z,100996.91
2022-09-09T07:31:37.521Z,101003.81
2022-09-09T07:35:03.055Z,101001.97
2022-09-09T07:38:25.078Z,101000.31
2022-09-09T07:41:50.076Z,101000.31
2022-09-09T07:45:16.407Z,100993.91
2022-09-09T07:48:38.561Z,101003.66
2022-09-09T07:52:00.960Z,101009.38
2022-09-09T07:55:26.407Z,101009.75
2022-09-09T07:58:49.355Z,101008.19
2022-09-09T08:02:13.046Z,101007.69
2022-09-09T08:05:35.120Z,101004.97
2022-09-09T08:08:57.368Z,101012.22
2022-09-09T08:12:19.753Z,101008.84
2022-09-09T08:15:42.104Z,101008.13
2022-09-09T08:19:06.571Z,101007.63
2022-09-09T08:22:28.874Z,101011.31
2022-09-09T08:25:51.102Z,101010.59
2022-09-09T08:29:14.871Z,101010.59
2022-09-09T08:32:36.719Z,101011.59
2022-09-09T08:35:59.998Z,101013.25
2022-09-09T08:39:23.829Z,101009.50
2022-09-09T08:42:50.804Z,101011.31
2022-09-09T08:46:22.538Z,101011.25
2022-09-09T08:50:05.034Z,101020.53
2022-09-09T08:53:32.299Z,101021.47
2022-09-09T08:56:54.906Z,101018.44
2022-09-09T09:00:16.953Z,101019.56
2022-09-09T09:03:47.366Z,101025.44
2022-09-09T09:07:22.133Z,101036.38
2022-09-09T09:10:50.072Z,101029.59
2022-09-09T09:14:24.277Z,101030.72
2022-09-09T09:17:47.598Z,101024.66
2022-09-09T09:21:15.590Z,101033.06
2022-09-09T09:24:47.893Z,101034.00
2022-09-09T09:28:19.217Z,101026.41
2022-09-09T09:31:48.941Z,101026.50
2022-09-09T09:35:14.580Z,101026.13
2022-09-09T09:42:23.850Z,101027.38
2022-09-09T09:46:13.885Z,101030.38
2022-09-09T09:49:31.450Z,101023.38
2022-09-09T09:52:58.408Z,101019.78
2022-09-09T09:56:29.632Z,101024.16
2022-09-09T10:00:02.357Z,101027.34
2022-09-09T10:03:30.217Z,101018.97
2022-09-09T10:06:54.034Z,101018.69
2022-09-09T10:10:21.576Z,101022.31
2022-09-09T10:13:51.452Z,101013.78
2022-09-09T10:17:28.180Z,101019.56
2022-09-09T10:21:01.368Z,101018.44
2022-09-09T10:24:47.013Z,101019.19
2022-09-09T10:28:35.316Z,101011.97
2022-09-09T10:32:08.314Z,101019.97
2022-09-09T10:35:34.414Z,101024.19
2022-09-09T10:39:01.932Z,101021.53
2022-09-09T10:42:33.118Z,101012.84
2022-09-09T10:46:04.815Z,101009.56
2022-09-09T10:49:41.594Z,101013.38
2022-09-09T10:53:15.239Z,101023.91
2022-09-09T10:56:40.766Z,101029.22
2022-09-09T11:00:06.988Z,101021.72
2022-09-09T11:03:32.060Z,101027.00
2022-09-09T11:06:57.103Z,101017.75
2022-09-09T11:10:26.330Z,101031.16
2022-09-09T11:13:56.911Z,101022.44
2022-09-09T11:17:22.861Z,101026.06
2022-09-09T11:20:46.833Z,101025.28
2022-09-09T11:24:16.457Z,101032.44
2022-09-09T11:27:46.883Z,101030.13
2022-09-09T11:31:29.793Z,101034.13
2022-09-09T11:34:58.709Z,101028.13
2022-09-09T11:38:28.831Z,101023.13
2022-09-09T11:41:50.866Z,101023.19
2022-09-09T11:45:22.166Z,101031.59
2022-09-09T11:48:46.733Z,101021.00
2022-09-09T11:52:22.873Z,101019.38
2022-09-09T11:55:45.068Z,101021.28
2022-09-09T11:59:09.051Z,101025.09
2022-09-09T12:02:32.174Z,101019.03
2022-09-09T12:05:57.058Z,101015.09
2022-09-09T12:09:27.958Z,101005.97
2022-09-09T12:12:49.708Z,101001.59
2022-09-09T12:16:34.284Z,101004.97
2022-09-09T12:20:08.220Z,100997.06
2022-09-09T12:23:40.258Z,100999.78
2022-09-09T12:27:09.381Z,100997.69
2022-09-09T12:30:36.576Z,101000.63
2022-09-09T12:34:12.011Z,100986.69
2022-09-09T12:37:37.507Z,100983.97
2022-09-09T12:41:01.594Z,100981.31
2022-09-09T12:44:23.807Z,100980.72
2022-09-09T12:47:49.313Z,100990.13
2022-09-09T12:51:21.296Z,100984.28
2022-09-09T12:54:48.138Z,100979.69
2022-09-09T12:58:17.974Z,100976.56
2022-09-09T13:01:39.461Z,100974.91
2022-09-09T13:05:10.063Z,100978.88
2022-09-09T13:08:32.218Z,100974.09
2022-09-09T13:11:59.202Z,100969.47
2022-09-09T13:15:27.566Z,100974.72
2022-09-09T13:18:50.375Z,100969.69
2022-09-09T13:22:17.265Z,100973.03
2022-09-09T13:25:43.644Z,100967.81
2022-09-09T13:29:22.294Z,100973.69
2022-09-09T13:32:45.207Z,100980.16
2022-09-09T13:36:09.138Z,100960.94
2022-09-09T13:39:31.245Z,100964.25
2022-09-09T13:42:57.295Z,100958.41
2022-09-09T13:46:31.232Z,100959.88
2022-09-09T13:49:54.275Z,100957.56
2022-09-09T13:53:16.179Z,100947.13
2022-09-09T13:56:38.741Z,100945.47
2022-09-09T14:00:07.456Z,100944.63
2022-09-09T14:03:29.121Z,100951.94
2022-09-09T14:06:52.695Z,100955.28
2022-09-09T14:10:14.748Z,100956.34
2022-09-09T14:13:38.455Z,100950.47
2022-09-09T14:17:00.377Z,100959.06
2022-09-09T14:20:22.609Z,100957.59
2022-09-09T14:23:45.665Z,100953.41
2022-09-09T14:27:07.420Z,100952.56
2022-09-09T14:30:29.184Z,100950.50
2022-09-09T14:33:51.760Z,100956.34
2022-09-09T14:37:13.361Z,100942.97
2022-09-09T14:40:36.524Z,100939.19
2022-09-09T14:43:58.583Z,100941.06
2022-09-09T14:47:20.200Z,100941.88
2022-09-09T14:50:42.381Z,100944.59
2022-09-09T14:54:04.506Z,100942.06
2022-09-09T14:57:27.789Z,100933.28
2022-09-09T15:00:49.635Z,100934.25
2022-09-09T15:04:15.639Z,100943.22
2022-09-09T15:07:38.122Z,100942.16
2022-09-09T15:11:02.060Z,100947.97
2022-09-09T15:14:27.063Z,100949.13
2022-09-09T15:17:48.783Z,100948.81
2022-09-09T15:21:11.318Z,100946.69
2022-09-09T15:24:33.420Z,100940.69
2022-09-09T15:27:56.886Z,100941.63
2022-09-09T15:31:22.506Z,100938.84
2022-09-09T15:34:44.334Z,100941.75
2022-09-09T15:38:06.758Z,100942.63
2022-09-09T15:41:29.037Z,100945.03
2022-09-09T15:44:50.920Z,100942.78
2022-09-09T15:48:14.152Z,100937.63
2022-09-09T15:51:42.795Z,100940.63
2022-09-09T15:55:06.027Z,100933.59
2022-09-09T15:58:27.599Z,100937.16
2022-09-09T16:01:52.194Z,100939.09
2022-09-09T16:05:15.574Z,100939.34
2022-09-09T16:08:38.692Z,100941.88
2022-09-09T16:12:01.837Z,100942.09
2022-09-09T16:15:24.176Z,100947.78
2022-09-09T16:18:47.484Z,100952.78
2022-09-09T16:22:10.458Z,100958.81
2022-09-09T16:25:32.384Z,100949.63
2022-09-09T16:28:55.150Z,100955.69
2022-09-09T16:32:17.430Z,100955.28
2022-09-09T16:35:39.790Z,100952.34
2022-09-09T16:39:05.069Z,100963.19
2022-09-09T16:42:26.858Z,100956.28
2022-09-09T16:45:48.879Z,100960.88
2022-09-09T16:49:13.066Z,100952.91
2022-09-09T16:52:34.667Z,100961.28
2022-09-09T16:55:57.814Z,100963.78
2022-09-09T16:59:21.003Z,100953.50
2022-09-09T17:02:43.109Z,100949.75
2022-09-09T17:06:05.441Z,100944.28
2022-09-09T17:09:30.102Z,100946.16
2022-09-09T17:12:53.819Z,100953.63
2022-09-09T17:16:18.082Z,100953.19
2022-09-09T17:19:39.671Z,100950.63
2022-09-09T17:23:01.410Z,100944.72
2022-09-09T17:26:24.898Z,100954.25
2022-09-09T17:29:48.070Z,100961.06
2022-09-09T17:33:10.863Z,100960.56
2022-09-09T17:36:34.717Z,100956.75
2022-09-09T17:39:56.863Z,100960.00
2022-09-09T17:43:18.665Z,100948.88
2022-09-09T17:46:43.652Z,100947.75
2022-09-09T17:50:07.575Z,100960.56
2022-09-09T17:53:29.630Z,100961.06
2022-09-09T17:56:51.793Z,100961.38
2022-09-09T18:00:14.203Z,100961.69
2022-09-09T18:03:38.203Z,100962.88
2022-09-09T18:07:00.318Z,100956.91
2022-09-09T18:10:22.502Z,100958.53
2022-09-09T18:13:44.488Z,100953.88
2022-09-09T18:17:06.770Z,100951.09
2022-09-09T18:20:30.370Z,100966.59
2022-09-09T18:23:52.775Z,100974.81
2022-09-09T18:27:14.700Z,100979.47
2022-09-09T18:30:41.150Z,100971.28
2022-09-09T18:34:05.482Z,100978.03
2022-09-09T18:37:28.569Z,100985.50
2022-09-09T18:40:50.926Z,100989.22
2022-09-09T18:44:16.162Z,100989.44
2022-09-09T18:47:38.058Z,100993.16
2022-09-09T18:51:03.810Z,100994.56
2022-09-09T18:54:30.381Z,101007.41
2022-09-09T18:57:51.930Z,101019.25
2022-09-09T19:01:16.676Z,101023.34
2022-09-09T19:04:38.669Z,101023.69
2022-09-09T19:08:00.481Z,101044.19
2022-09-09T19:11:25.274Z,101051.38
2022-09-09T19:14:46.988Z,101047.91
2022-09-09T19:18:09.306Z,101047.31
2022-09-09T19:21:32.847Z,101049.03
2022-09-09T19:24:55.712Z,101044.56
2022-09-09T19:28:18.662Z,101043.63
2022-09-09T19:31:41.552Z,101037.72
2022-09-09T19:35:08.298Z,101023.94
2022-09-09T19:38:30.534Z,101032.19
2022-09-09T19:41:52.233Z,101035.25
2022-09-09T19:45:15.539Z,101036.47
2022-09-09T19:48:39.540Z,101031.41
2022-09-09T19:52:01.146Z,101022.97
2022-09-09T19:55:28.659Z,101026.03
2022-09-09T19:58:50.862Z,101024.72
2022-09-09T20:02:15.592Z,101019.88
2022-09-09T20:05:37.543Z,101015.84
2022-09-09T20:08:59.451Z,101026.16
2022-09-09T20:12:21.475Z,101025.84
2022-09-09T20:15:42.981Z,101026.56
2022-09-09T20:19:08.460Z,101028.28
2022-09-09T20:22:30.658Z,101031.00
2022-09-09T20:25:52.335Z,101051.63
2022-09-09T20:29:16.727Z,101060.41
2022-09-09T20:32:38.378Z,101054.03
2022-09-09T20:36:05.163Z,101052.19
2022-09-09T20:39:27.848Z,101064.69
2022-09-09T20:42:49.510Z,101059.47
2022-09-09T20:46:10.941Z,101053.09
2022-09-09T20:49:35.119Z,101049.72
2022-09-09T20:52:58.242Z,101045.34
2022-09-09T20:56:20.371Z,101051.63
2022-09-09T20:59:43.358Z,101045.56
2022-09-09T21:03:05.647Z,101036.66
2022-09-09T21:06:27.742Z,101032.25
2022-09-09T21:09:50.540Z,101029.44
2022-09-09T21:13:11.903Z,101017.13
2022-09-09T21:16:33.210Z,101012.59
2022-09-09T21:19:57.284Z,101006.19
2022-09-09T21:23:19.382Z,101013.03
2022-09-09T21:26:43.955Z,101006.31
2022-09-09T21:30:06.038Z,101012.03
2022-09-09T21:33:29.214Z,101014.06
2022-09-09T21:36:51.366Z,101020.97
2022-09-09T21:40:13.441Z,101019.94
2022-09-09T21:43:36.753Z,101020.09
2022-09-09T21:46:58.110Z,101023.31
2022-09-09T21:50:24.498Z,101027.50
2022-09-09T21:53:49.830Z,101030.88
2022-09-09T21:57:14.227Z,101033.44
2022-09-09T22:00:37.806Z,101032.44
2022-09-09T22:03:59.788Z,101033.94
2022-09-09T22:07:21.651Z,101031.91
2022-09-09T22:10:45.940Z,101033.63
2022-09-09T22:14:08.010Z,101035.31
2022-09-09T22:17:31.806Z,101037.66
2022-09-09T22:20:53.664Z,101039.50
2022-09-09T22:24:15.778Z,101048.44
2022-09-09T22:27:37.363Z,101042.19
2022-09-09T22:30:58.802Z,101044.06
2022-09-09T22:34:21.953Z,101039.84
2022-09-09T22:37:43.531Z,101041.69
2022-09-09T22:41:05.943Z,101048.06
2022-09-09T22:44:28.531Z,101046.56
2022-09-09T22:47:51.356Z,101040.50
2022-09-09T22:51:16.082Z,101040.66
2022-09-09T22:54:38.089Z,101043.34
2022-09-09T22:57:59.654Z,101046.03
2022-09-09T23:01:21.890Z,101047.00
2022-09-09T23:04:45.589Z,101037.25
2022-09-09T23:08:08.728Z,101043.66
2022-09-09T23:11:32.281Z,101040.97
2022-09-09T23:14:55.245Z,101029.53
2022-09-09T23:18:17.486Z,101032.22
2022-09-09T23:21:40.520Z,101029.53
2022-09-09T23:25:05.867Z,101024.16
2022-09-09T23:28:27.918Z,101018.75
2022-09-09T23:31:49.606Z,101019.78
2022-09-09T23:35:11.426Z,101017.06
2022-09-09T23:38:33.142Z,101013.38
2022-09-09T23:41:55.893Z,101007.31
2022-09-09T23:45:17.990Z,101003.81
2022-09-09T23:48:40.617Z,101012.88
2022-09-09T23:52:04.333Z,101014.56
2022-09-09T23:55:26.238Z,101009.53
2022-09-09T23:58:50.113Z,101005.63
